N707VM CYEG-CYZF
Flight info
| Callsign | N707VM |
|---|---|
| Flight time | N/A |
| Altitude | 43000 |
| Route | GABET1 GABET DCT MOOTO DCT GOREK DCT |
| Aircraft | C700/M-SBDGHM1RWXY/LB2 |
Departure
| Time | N/A |
|---|---|
| Airport | Edmonton International Airport (CYEG) |
Arrival
| Time | 2026-05-05 23:16 |
|---|---|
| Airport | Yellowknife International Airport (CYZF) |
| Time | Latitude | Longitude | Altitude | Speed | Heading |
|---|---|---|---|---|---|
| 2026-05-05 22:52 | 60.75507 | -114.09462 | 38925 ft | 360 kts | 354° |
| 2026-05-05 22:52 | 60.77991 | -114.09714 | 38400 ft | 354 kts | 353° |
| 2026-05-05 22:53 | 60.80406 | -114.09967 | 37939 ft | 349 kts | 353° |
| 2026-05-05 22:53 | 60.82838 | -114.10193 | 37472 ft | 350 kts | 353° |
| 2026-05-05 22:53 | 60.85287 | -114.10418 | 37012 ft | 355 kts | 353° |
| 2026-05-05 22:53 | 60.87787 | -114.10656 | 36541 ft | 363 kts | 353° |
| 2026-05-05 22:54 | 60.90338 | -114.10899 | 36054 ft | 367 kts | 353° |
| 2026-05-05 22:54 | 60.92867 | -114.11135 | 35571 ft | 367 kts | 353° |
| 2026-05-05 22:54 | 60.95418 | -114.11374 | 35084 ft | 365 kts | 352° |
| 2026-05-05 22:54 | 60.97953 | -114.11614 | 34599 ft | 362 kts | 352° |
| 2026-05-05 22:55 | 61.00467 | -114.11855 | 34134 ft | 360 kts | 352° |
| 2026-05-05 22:55 | 61.02961 | -114.12093 | 33625 ft | 356 kts | 352° |
| 2026-05-05 22:55 | 61.05424 | -114.12327 | 33158 ft | 354 kts | 352° |
| 2026-05-05 22:55 | 61.07876 | -114.12567 | 32695 ft | 358 kts | 352° |
| 2026-05-05 22:56 | 61.10392 | -114.12812 | 32220 ft | 365 kts | 352° |
| 2026-05-05 22:56 | 61.12948 | -114.13056 | 31734 ft | 371 kts | 353° |
| 2026-05-05 22:56 | 61.15544 | -114.13301 | 31245 ft | 373 kts | 353° |
| 2026-05-05 22:56 | 61.18147 | -114.13549 | 30756 ft | 373 kts | 353° |
| 2026-05-05 22:57 | 61.20718 | -114.13798 | 30265 ft | 373 kts | 353° |
| 2026-05-05 22:57 | 61.23325 | -114.14051 | 29736 ft | 373 kts | 353° |
| 2026-05-05 22:57 | 61.25901 | -114.14300 | 29246 ft | 375 kts | 353° |
| 2026-05-05 22:57 | 61.28531 | -114.14557 | 28739 ft | 379 kts | 353° |
| 2026-05-05 22:58 | 61.31196 | -114.14817 | 28245 ft | 386 kts | 353° |
| 2026-05-05 22:58 | 61.33907 | -114.15080 | 27729 ft | 392 kts | 354° |
| 2026-05-05 22:58 | 61.36634 | -114.15343 | 27210 ft | 393 kts | 354° |
| 2026-05-05 22:58 | 61.39332 | -114.15604 | 26697 ft | 393 kts | 354° |
| 2026-05-05 22:59 | 61.42055 | -114.15870 | 26180 ft | 389 kts | 354° |
| 2026-05-05 22:59 | 61.44752 | -114.16134 | 25664 ft | 386 kts | 354° |
| 2026-05-05 22:59 | 61.47438 | -114.16398 | 25157 ft | 383 kts | 355° |
| 2026-05-05 22:59 | 61.50064 | -114.16657 | 24659 ft | 381 kts | 355° |
| 2026-05-05 23:00 | 61.55339 | -114.17176 | 23640 ft | 378 kts | 355° |
| 2026-05-05 23:00 | 61.57960 | -114.17434 | 23121 ft | 376 kts | 355° |
| 2026-05-05 23:00 | 61.60565 | -114.17691 | 22629 ft | 373 kts | 355° |
| 2026-05-05 23:01 | 61.63158 | -114.17948 | 22135 ft | 373 kts | 355° |
| 2026-05-05 23:01 | 61.65756 | -114.18207 | 21642 ft | 373 kts | 355° |
| 2026-05-05 23:01 | 61.68347 | -114.18464 | 21149 ft | 370 kts | 355° |
| 2026-05-05 23:01 | 61.70904 | -114.18717 | 20662 ft | 367 kts | 355° |
| 2026-05-05 23:02 | 61.72585 | -114.18884 | 20348 ft | 364 kts | 355° |
| 2026-05-05 23:02 | 61.75932 | -114.19220 | 19712 ft | 360 kts | 355° |
| 2026-05-05 23:02 | 61.77597 | -114.19386 | 19427 ft | 359 kts | 355° |
| 2026-05-05 23:02 | 61.80078 | -114.19635 | 18920 ft | 352 kts | 355° |
| 2026-05-05 23:03 | 61.82517 | -114.19878 | 18450 ft | 345 kts | 355° |
| 2026-05-05 23:03 | 61.84877 | -114.20116 | 17809 ft | 344 kts | 355° |
| 2026-05-05 23:03 | 61.87271 | -114.20359 | 17328 ft | 340 kts | 355° |
| 2026-05-05 23:03 | 61.89630 | -114.20596 | 16878 ft | 340 kts | 355° |
| 2026-05-05 23:04 | 61.91978 | -114.20834 | 16426 ft | 342 kts | 355° |
| 2026-05-05 23:04 | 61.94367 | -114.21075 | 15975 ft | 344 kts | 355° |
| 2026-05-05 23:04 | 61.96762 | -114.21318 | 15520 ft | 343 kts | 355° |
| 2026-05-05 23:04 | 61.99146 | -114.21559 | 15069 ft | 341 kts | 355° |
| 2026-05-05 23:05 | 62.01484 | -114.21796 | 14628 ft | 339 kts | 355° |
| 2026-05-05 23:05 | 62.03836 | -114.22036 | 14185 ft | 338 kts | 355° |
| 2026-05-05 23:05 | 62.06182 | -114.22275 | 13708 ft | 337 kts | 356° |
| 2026-05-05 23:05 | 62.08530 | -114.22514 | 13258 ft | 335 kts | 356° |
| 2026-05-05 23:06 | 62.10859 | -114.22752 | 12824 ft | 333 kts | 356° |
| 2026-05-05 23:06 | 62.13145 | -114.22984 | 12389 ft | 320 kts | 356° |
| 2026-05-05 23:06 | 62.15301 | -114.23203 | 11983 ft | 302 kts | 356° |
| 2026-05-05 23:06 | 62.17320 | -114.23411 | 11594 ft | 287 kts | 356° |
| 2026-05-05 23:07 | 62.19283 | -114.23614 | 11221 ft | 276 kts | 355° |
| 2026-05-05 23:07 | 62.21179 | -114.23810 | 10865 ft | 271 kts | 355° |
| 2026-05-05 23:07 | 62.23075 | -114.24007 | 10511 ft | 274 kts | 355° |
| 2026-05-05 23:07 | 62.25002 | -114.24207 | 10158 ft | 278 kts | 356° |
| 2026-05-05 23:08 | 62.26929 | -114.24406 | 9753 ft | 279 kts | 355° |
| 2026-05-05 23:08 | 62.28859 | -114.24604 | 9380 ft | 277 kts | 356° |
| 2026-05-05 23:08 | 62.30783 | -114.24803 | 9014 ft | 276 kts | 356° |
| 2026-05-05 23:08 | 62.32707 | -114.25003 | 8650 ft | 276 kts | 356° |
| 2026-05-05 23:09 | 62.34604 | -114.25201 | 8292 ft | 276 kts | 356° |
| 2026-05-05 23:09 | 62.36526 | -114.25400 | 7924 ft | 277 kts | 356° |
| 2026-05-05 23:09 | 62.38439 | -114.25599 | 7569 ft | 271 kts | 356° |
| 2026-05-05 23:09 | 62.40301 | -114.25792 | 7218 ft | 263 kts | 356° |
| 2026-05-05 23:10 | 62.42107 | -114.25981 | 6868 ft | 257 kts | 356° |
| 2026-05-05 23:10 | 62.43879 | -114.26166 | 6530 ft | 252 kts | 356° |
| 2026-05-05 23:10 | 62.45599 | -114.26348 | 6207 ft | 248 kts | 356° |
| 2026-05-05 23:10 | 62.47318 | -114.26524 | 5868 ft | 246 kts | 356° |
| 2026-05-05 23:11 | 62.49022 | -114.26704 | 5546 ft | 244 kts | 356° |
| 2026-05-05 23:11 | 62.50685 | -114.26895 | 5233 ft | 233 kts | 355° |
| 2026-05-05 23:11 | 62.52279 | -114.27168 | 4926 ft | 227 kts | 356° |
| 2026-05-05 23:11 | 62.53838 | -114.27368 | 4628 ft | 222 kts | 356° |
| 2026-05-05 23:12 | 62.55344 | -114.27716 | 4338 ft | 221 kts | 345° |
| 2026-05-05 23:12 | 62.56719 | -114.29170 | 4048 ft | 219 kts | 321° |
| 2026-05-05 23:12 | 62.57735 | -114.31590 | 3745 ft | 215 kts | 293° |
| 2026-05-05 23:12 | 62.57880 | -114.34693 | 3416 ft | 206 kts | 248° |
| 2026-05-05 23:13 | 62.57087 | -114.37135 | 3183 ft | 196 kts | 219° |
| 2026-05-05 23:13 | 62.56084 | -114.39069 | 2982 ft | 193 kts | 217° |
| 2026-05-05 23:13 | 62.55087 | -114.40956 | 2983 ft | 190 kts | 217° |
| 2026-05-05 23:13 | 62.54053 | -114.42717 | 2633 ft | 185 kts | 209° |
| 2026-05-05 23:14 | 62.52954 | -114.43981 | 1989 ft | 166 kts | 199° |
| 2026-05-05 23:14 | 62.51969 | -114.44719 | 1934 ft | 139 kts | 191° |
| 2026-05-05 23:14 | 62.50997 | -114.44905 | 1528 ft | 144 kts | 179° |
| 2026-05-05 23:14 | 62.50007 | -114.44850 | 1282 ft | 132 kts | 174° |
| 2026-05-05 23:15 | 62.49213 | -114.44710 | 1081 ft | 109 kts | 172° |
| 2026-05-05 23:15 | 62.48463 | -114.44581 | 934 ft | 106 kts | 173° |
| 2026-05-05 23:15 | 62.47730 | -114.44476 | 808 ft | 108 kts | 172° |
| 2026-05-05 23:15 | 62.46984 | -114.44345 | 694 ft | 105 kts | 172° |
| 2026-05-05 23:16 | 62.46354 | -114.44234 | 671 ft | 68 kts | 176° |
| 2026-05-05 23:16 | 62.46031 | -114.44188 | 673 ft | 36 kts | 175° |
| 2026-05-05 23:16 | 62.45811 | -114.44159 | 673 ft | 29 kts | 176° |
| 2026-05-05 23:16 | 62.45614 | -114.44134 | 670 ft | 29 kts | 175° |
| 2026-05-05 23:17 | 62.45418 | -114.44104 | 670 ft | 29 kts | 178° |
| 2026-05-05 23:17 | 62.45311 | -114.44114 | 672 ft | 8 kts | 170° |
| 2026-05-05 23:17 | 62.45320 | -114.44054 | 671 ft | 9 kts | 335° |
| 2026-05-05 23:17 | 62.45413 | -114.44099 | 670 ft | 20 kts | 358° |
| 2026-05-05 23:18 | 62.45588 | -114.44125 | 670 ft | 31 kts | 355° |
| 2026-05-05 23:18 | 62.45835 | -114.44156 | 672 ft | 40 kts | 355° |
| 2026-05-05 23:18 | 62.46148 | -114.44201 | 672 ft | 49 kts | 355° |
| 2026-05-05 23:18 | 62.46516 | -114.44262 | 672 ft | 57 kts | 355° |
| 2026-05-05 23:19 | 62.46816 | -114.44314 | 672 ft | 20 kts | 355° |
| 2026-05-05 23:19 | 62.46898 | -114.44262 | 674 ft | 13 kts | 45° |
| 2026-05-05 23:19 | 62.46960 | -114.44070 | 673 ft | 18 kts | 56° |
| 2026-05-05 23:19 | 62.46968 | -114.43931 | 673 ft | 11 kts | 118° |
| 2026-05-05 23:20 | 62.46952 | -114.43863 | 673 ft | 3 kts | 116° |
| 2026-05-05 23:20 | 62.46934 | -114.43788 | 673 ft | 8 kts | 117° |
| 2026-05-05 23:20 | 62.46904 | -114.43663 | 673 ft | 11 kts | 118° |
| 2026-05-05 23:20 | 62.46902 | -114.43582 | 673 ft | 5 kts | 47° |
| 2026-05-05 23:21 | 62.46904 | -114.43495 | 673 ft | 8 kts | 124° |
| 2026-05-05 23:21 | 62.46896 | -114.43479 | 673 ft | 3 kts | 132° |
| 2026-05-05 23:21 | 62.46882 | -114.43469 | 673 ft | 0 kts | 196° |
| 2026-05-05 23:22 | 62.46882 | -114.43466 | 673 ft | 0 kts | 205° |